Time;durP1;ratioP1;P1;durP2;ratioP2;P2;SDS_P1;SDS_P2;PMS_P1;PMS_P2;Temp;Humidity;BMP_temperature;BMP_pressure;BME280_temperature;BME280_humidity;BME280_pressure;Samples;Min_cycle;Max_cycle;Signal;HPM_P1;HPM_P2
2023/01/17 00:01:26;;;;;;;;;;;;;;;;;;4437090;32;20052;-71
2023/01/17 00:12:04;;;;;;;12.07;1.67;;;;;;;;;;4451585;32;20032;-71
2023/01/17 00:14:29;;;;;;;;;;;;;;;;;;4437391;32;20084;-71
2023/01/17 00:16:54;;;;;;;13.77;4.22;;;;;;;;;;4441471;32;19976;-72
2023/01/17 01:33:49;;;;;;;4.70;1.25;;;;;;;;;;4454192;32;20097;-71
2023/01/17 01:36:14;;;;;;;9.10;2.22;;;;;;;;;;4454191;32;20090;-73
2023/01/17 01:38:39;;;;;;;;;;;;;;;;;;4454335;32;20025;-72
2023/01/17 01:41:05;;;;;;;5.90;1.52;;;;;;;;;;4452798;32;20318;-73
2023/01/17 01:43:30;;;;;;;;;;;;;;;;;;4454712;32;20120;-72
2023/01/17 01:45:56;;;;;;;7.00;1.37;;;;;;;;;;4454402;32;20048;-73
2023/01/17 01:48:32;;;;;;;4.32;1.33;;;;;;;;;;4453488;32;20037;-73
2023/01/17 01:50:57;;;;;;;8.50;1.23;;;;;;;;;;4452547;32;20058;-73
2023/01/17 01:53:22;;;;;;;;;;;;;;;;;;4453873;32;20056;-73
2023/01/17 01:55:49;;;;;;;2.20;0.88;;;;;;;;;;4437873;32;19958;-73
2023/01/17 01:58:21;;;;;;;4.53;0.75;;;;;;;;;;4452158;32;20056;-73
2023/01/17 02:00:46;;;;;;;3.05;0.80;;;;;;;;;;4438089;32;20029;-72
2023/01/17 02:03:11;;;;;;;;;;;;;;;;;;4454242;32;20104;-73
2023/01/17 02:05:36;;;;;;;11.38;1.87;;;;;;;;;;4452010;32;19987;-73
2023/01/17 02:08:02;;;;;;;;;;;;;;;;;;4452751;32;20487;-73
2023/01/17 02:10:27;;;;;;;8.15;1.35;;;;;;;;;;4451821;32;19943;-73
2023/01/17 02:12:52;;;;;;;;;;;;;;;;;;4451954;32;20075;-73
2023/01/17 02:15:17;;;;;;;9.50;1.52;;;;;;;;;;4451680;32;19947;-73
2023/01/17 02:17:42;;;;;;;;;;;;;;;;;;4452208;32;20121;-73
2023/01/17 02:20:14;;;;;;;5.97;1.02;;;;;;;;;;4452355;32;20363;-73
2023/01/17 02:22:42;;;;;;;9.10;1.00;;;;;;;;;;4453075;32;20186;-73
2023/01/17 02:25:13;;;;;;;6.80;0.88;;;;;;;;;;4438310;32;20063;-72
2023/01/17 02:28:00;;;;;;;4.20;1.10;;;;;;;;;;4438773;32;20112;-73
2023/01/17 02:30:44;;;;;;;6.90;1.17;;;;;;;;;;4439409;32;20025;-73
2023/01/17 02:33:18;;;;;;;5.82;1.30;;;;;;;;;;4451839;32;20029;-73
2023/01/17 02:35:50;;;;;;;14.63;2.80;;;;;;;;;;4437342;32;20153;-73
2023/01/17 02:38:24;;;;;;;9.48;2.30;;;;;;;;;;4451823;32;20040;-73
2023/01/17 02:40:59;;;;;;;6.75;1.10;;;;;;;;;;4437475;32;20055;-73
2023/01/17 02:43:24;;;;;;;8.48;1.48;;;;;;;;;;4453085;32;20076;-72
2023/01/17 02:45:50;;;;;;;;;;;;;;;;;;4452139;32;20030;-72
2023/01/17 02:48:19;;;;;;;16.37;4.18;;;;;;;;;;4453141;32;19994;-73
2023/01/17 02:50:53;;;;;;;6.55;1.50;;;;;;;;;;4451214;32;20577;-72
2023/01/17 02:53:24;;;;;;;11.80;2.60;;;;;;;;;;4451010;32;20426;-73
2023/01/17 02:55:49;;;;;;;10.27;1.55;;;;;;;;;;4450307;32;20041;-73
2023/01/17 02:58:15;;;;;;;;;;;;;;;;;;4452716;32;20403;-73
2023/01/17 03:00:43;;;;;;;7.25;1.73;;;;;;;;;;4452771;32;19940;-72
2023/01/17 03:03:31;;;;;;;5.00;1.20;;;;;;;;;;4450747;32;20092;-73
2023/01/17 03:06:10;;;;;;;4.65;0.80;;;;;;;;;;4439005;32;20037;-73
2023/01/17 03:08:35;;;;;;;5.43;1.00;;;;;;;;;;4437980;32;20321;-73
2023/01/17 03:11:02;;;;;;;;;;;;;;;;;;4451738;32;20051;-72
2023/01/17 03:13:27;;;;;;;6.00;0.80;;;;;;;;;;4436505;32;19932;-72
2023/01/17 03:15:52;;;;;;;;;;;;;;;;;;4451471;32;20353;-73
2023/01/17 03:18:17;;;;;;;5.57;0.90;;;;;;;;;;4451214;32;19947;-72
2023/01/17 03:20:43;;;;;;;;;;;;;;;;;;4452863;32;20369;-72
2023/01/17 03:23:08;;;;;;;9.95;1.23;;;;;;;;;;4451148;32;19932;-72
2023/01/17 03:25:33;;;;;;;;;;;;;;;;;;4452226;32;20053;-72
2023/01/17 03:27:58;;;;;;;4.05;0.88;;;;;;;;;;4450874;32;19945;-73
2023/01/17 03:30:23;;;;;;;;;;;;;;;;;;4451676;32;20190;-73
2023/01/17 03:32:49;;;;;;;8.10;1.08;;;;;;;;;;4436695;32;19947;-73
2023/01/17 03:35:14;;;;;;;;;;;;;;;;;;4437420;32;20182;-73
2023/01/17 03:37:39;;;;;;;3.05;0.93;;;;;;;;;;4450968;32;20310;-73
2023/01/17 03:40:04;;;;;;;;;;;;;;;;;;4453083;32;20169;-72
2023/01/17 03:42:29;;;;;;;5.00;0.80;;;;;;;;;;4451522;32;19932;-72
2023/01/17 03:44:54;;;;;;;;;;;;;;;;;;4437619;32;20187;-72
2023/01/17 03:47:19;;;;;;;8.98;1.10;;;;;;;;;;4451238;32;19955;-72
2023/01/17 03:49:45;;;;;;;5.07;1.45;;;;;;;;;;4452047;32;20064;-73
2023/01/17 03:52:10;;;;;;;;;;;;;;;;;;4454754;32;20051;-73
2023/01/17 03:54:35;;;;;;;8.05;1.17;;;;;;;;;;4455574;32;19928;-72
2023/01/17 03:57:00;;;;;;;;;;;;;;;;;;4440766;32;20128;-73
2023/01/17 03:59:25;;;;;;;8.27;1.37;;;;;;;;;;4455731;32;19943;-73
2023/01/17 04:01:50;;;;;;;;;;;;;;;;;;4456057;32;20557;-73
2023/01/17 04:04:15;;;;;;;8.23;1.12;;;;;;;;;;4455909;32;19945;-73
2023/01/17 04:06:41;;;;;;;3.12;1.23;;;;;;;;;;4439830;32;20051;-72
2023/01/17 04:09:06;;;;;;;5.30;1.12;;;;;;;;;;4441302;32;20096;-72
2023/01/17 04:11:31;;;;;;;;;;;;;;;;;;4439715;32;20025;-73
2023/01/17 04:13:56;;;;;;;10.23;2.22;;;;;;;;;;4454520;32;20237;-73
2023/01/17 04:16:21;;;;;;;;;;;;;;;;;;4440411;32;20124;-73
2023/01/17 04:18:46;;;;;;;6.85;1.40;;;;;;;;;;4455246;32;19964;-73
2023/01/17 04:21:12;;;;;;;;;;;;;;;;;;4441442;32;20120;-73
2023/01/17 04:23:37;;;;;;;3.92;1.42;;;;;;;;;;4455024;32;19941;-72
2023/01/17 04:26:02;;;;;;;;;;;;;;;;;;4453366;32;20193;-73
2023/01/17 04:28:27;;;;;;;8.90;2.00;;;;;;;;;;4455335;32;20257;-73
2023/01/17 04:30:56;;;;;;;6.80;1.55;;;;;;;;;;4455539;32;20029;-73
2023/01/17 04:33:21;;;;;;;8.18;1.92;;;;;;;;;;4453075;32;20030;-73
2023/01/17 04:35:46;;;;;;;;;;;;;;;;;;4441697;32;20093;-73
2023/01/17 04:38:11;;;;;;;8.70;2.42;;;;;;;;;;4454800;32;19936;-74
2023/01/17 04:40:36;;;;;;;7.60;1.70;;;;;;;;;;4453787;32;20028;-73
2023/01/17 04:43:02;;;;;;;;;;;;;;;;;;4439320;32;20079;-74
2023/01/17 04:45:27;;;;;;;16.42;2.67;;;;;;;;;;4440736;32;19936;-73
2023/01/17 04:47:52;;;;;;;;;;;;;;;;;;4454181;32;20172;-72
2023/01/17 04:50:17;;;;;;;14.52;2.50;;;;;;;;;;4453813;32;19974;-73
2023/01/17 04:52:42;;;;;;;;;;;;;;;;;;4453400;32;20538;-73
2023/01/17 04:55:08;;;;;;;8.52;2.03;;;;;;;;;;4454112;32;20017;-73
2023/01/17 04:57:33;;;;;;;;;;;;;;;;;;4453208;32;20465;-72
2023/01/17 04:59:58;;;;;;;12.62;1.76;;;;;;;;;;4452794;32;19933;-73
2023/01/17 05:02:23;;;;;;;;;;;;;;;;;;4453048;32;20057;-73
2023/01/17 05:04:48;;;;;;;8.43;1.92;;;;;;;;;;4454921;32;19975;-72
2023/01/17 05:07:13;;;;;;;;;;;;;;;;;;4453655;32;20121;-72
2023/01/17 05:09:39;;;;;;;11.35;1.60;;;;;;;;;;4439540;32;19973;-72
2023/01/17 05:12:04;;;;;;;;;;;;;;;;;;4439132;32;20510;-72
2023/01/17 05:14:29;;;;;;;10.32;2.40;;;;;;;;;;4452893;32;19985;-72
2023/01/17 05:16:54;;;;;;;;;;;;;;;;;;4439283;32;20529;-73
2023/01/17 05:19:20;;;;;;;11.30;1.80;;;;;;;;;;4453074;32;19933;-72
2023/01/17 05:21:45;;;;;;;;;;;;;;;;;;4453619;32;20163;-73
2023/01/17 05:24:10;;;;;;;7.05;1.98;;;;;;;;;;4454367;32;20306;-72
2023/01/17 05:26:35;;;;;;;;;;;;;;;;;;4453964;32;20170;-73
2023/01/17 05:29:00;;;;;;;9.95;2.70;;;;;;;;;;4454042;32;19944;-73
2023/01/17 05:31:25;;;;;;;14.82;2.40;;;;;;;;;;4454487;32;20040;-72
2023/01/17 05:33:50;;;;;;;11.55;1.70;;;;;;;;;;4454393;32;20056;-71
2023/01/17 05:36:16;;;;;;;6.85;1.65;;;;;;;;;;4442217;32;20026;-72
2023/01/17 05:38:41;;;;;;;8.20;1.33;;;;;;;;;;4457168;32;20074;-72
2023/01/17 05:41:06;;;;;;;5.47;1.90;;;;;;;;;;4456576;32;20030;-73
2023/01/17 05:43:32;;;;;;;11.68;1.50;;;;;;;;;;4445194;32;20346;-73
2023/01/17 05:45:57;;;;;;;;;;;;;;;;;;4453741;32;20078;-73
2023/01/17 05:48:22;;;;;;;8.80;1.65;;;;;;;;;;4453185;32;19956;-73
2023/01/17 05:50:47;;;;;;;;;;;;;;;;;;4453888;32;20131;-72
2023/01/17 05:53:13;;;;;;;6.75;1.83;;;;;;;;;;4453457;32;19932;-72
2023/01/17 05:55:39;;;;;;;10.52;1.70;;;;;;;;;;4452341;32;20142;-72
2023/01/17 05:58:04;;;;;;;;;;;;;;;;;;4438551;32;20468;-72
2023/01/17 06:00:30;;;;;;;10.57;2.15;;;;;;;;;;4452452;32;20310;-72
2023/01/17 06:02:56;;;;;;;12.52;2.20;;;;;;;;;;4453852;32;20051;-69
2023/01/17 06:05:22;;;;;;;9.00;2.95;;;;;;;;;;4453390;32;20367;-72
2023/01/17 06:07:47;;;;;;;;;;;;;;;;;;4451963;32;20436;-73
2023/01/17 06:10:16;;;;;;;10.58;1.76;;;;;;;;;;4452343;32;20021;-74
2023/01/17 06:12:41;;;;;;;10.48;2.70;;;;;;;;;;4439334;32;20354;-71
2023/01/17 06:15:06;;;;;;;;;;;;;;;;;;4452545;32;20025;-72
2023/01/17 06:17:32;;;;;;;5.65;1.70;;;;;;;;;;4451571;32;20116;-72
2023/01/17 06:19:57;;;;;;;;;;;;;;;;;;4451940;32;20151;-72
2023/01/17 06:22:23;;;;;;;8.63;1.37;;;;;;;;;;4453432;32;19975;-73
2023/01/17 06:24:48;;;;;;;13.27;2.05;;;;;;;;;;4451572;32;20051;-73
2023/01/17 06:27:13;;;;;;;;;;;;;;;;;;4453456;32;20063;-72
2023/01/17 06:29:38;;;;;;;7.43;1.42;;;;;;;;;;4452408;32;19945;-72
2023/01/17 06:32:03;;;;;;;;;;;;;;;;;;4432293;32;20224;-72
2023/01/17 06:34:28;;;;;;;10.88;2.45;;;;;;;;;;4432382;32;19940;-72
2023/01/17 06:36:53;;;;;;;;;;;;;;;;;;4450784;32;20227;-73
2023/01/17 06:39:19;;;;;;;6.85;1.62;;;;;;;;;;4442506;32;20299;-72
2023/01/17 06:41:44;;;;;;;8.63;1.73;;;;;;;;;;4438204;32;20083;-73
2023/01/17 06:44:09;;;;;;;;;;;;;;;;;;4437152;32;20052;-72
2023/01/17 06:46:34;;;;;;;6.65;1.83;;;;;;;;;;4436186;32;19979;-73
2023/01/17 06:48:59;;;;;;;;;;;;;;;;;;4436202;32;20496;-73
2023/01/17 06:51:25;;;;;;;7.20;2.42;;;;;;;;;;4436459;32;20318;-73
2023/01/17 06:53:50;;;;;;;;;;;;;;;;;;4436330;32;20150;-72
2023/01/17 06:56:15;;;;;;;4.25;1.70;;;;;;;;;;4421604;32;20427;-72
2023/01/17 06:58:40;;;;;;;;;;;;;;;;;;4437308;32;20112;-72
2023/01/17 07:01:06;;;;;;;6.68;1.95;;;;;;;;;;4423313;32;19936;-74
2023/01/17 07:03:31;;;;;;;7.65;1.65;;;;;;;;;;4441428;32;20179;-73
2023/01/17 07:05:56;;;;;;;;;;;;;;;;;;4451557;32;20022;-73
2023/01/17 07:08:22;;;;;;;7.68;1.75;;;;;;;;;;4439284;32;20338;-72
2023/01/17 07:10:47;;;;;;;;;;;;;;;;;;4453775;32;20116;-72
2023/01/17 07:13:13;;;;;;;6.60;1.85;;;;;;;;;;4452164;32;20336;-72
2023/01/17 07:15:38;;;;;;;;;;;;;;;;;;4452057;32;20399;-72
2023/01/17 07:18:04;;;;;;;4.87;1.67;;;;;;;;;;4438203;32;20247;-72
2023/01/17 07:20:29;;;;;;;;;;;;;;;;;;4436687;32;20022;-72
2023/01/17 07:22:54;;;;;;;8.18;2.50;;;;;;;;;;4451600;32;20068;-72
2023/01/17 07:25:19;;;;;;;;;;;;;;;;;;4450400;32;20349;-72
2023/01/17 07:27:45;;;;;;;8.43;3.22;;;;;;;;;;4450538;32;20065;-72
2023/01/17 07:30:10;;;;;;;;;;;;;;;;;;4450929;32;20124;-72
2023/01/17 07:32:36;;;;;;;6.22;1.66;;;;;;;;;;4450728;32;19972;-72
2023/01/17 07:35:01;;;;;;;;;;;;;;;;;;4451430;32;20020;-72
2023/01/17 07:37:26;;;;;;;6.10;1.67;;;;;;;;;;4438016;32;19954;-73
2023/01/17 07:39:51;;;;;;;11.75;2.65;;;;;;;;;;4436051;32;20022;-72
2023/01/17 07:42:19;;;;;;;9.63;1.65;;;;;;;;;;4450590;32;20029;-73
2023/01/17 07:44:45;;;;;;;3.80;1.90;;;;;;;;;;4438187;32;20068;-72
2023/01/17 07:47:10;;;;;;;;;;;;;;;;;;4436900;32;20047;-71
2023/01/17 07:49:35;;;;;;;4.35;2.05;;;;;;;;;;4451688;32;19990;-72
2023/01/17 07:52:00;;;;;;;;;;;;;;;;;;4453013;32;20125;-72
2023/01/17 07:54:25;;;;;;;8.05;2.10;;;;;;;;;;4437429;32;19951;-73
2023/01/17 07:56:50;;;;;;;;;;;;;;;;;;4453017;32;20150;-72
2023/01/17 07:59:16;;;;;;;10.57;2.25;;;;;;;;;;4436960;32;19999;-72
2023/01/17 08:01:42;;;;;;;;;;;;;;;;;;4452079;32;20462;-72
2023/01/17 08:04:08;;;;;;;6.15;2.20;;;;;;;;;;4450907;32;20270;-72
2023/01/17 08:06:33;;;;;;;;;;;;;;;;;;4451564;32;20241;-72
2023/01/17 08:08:58;;;;;;;9.73;3.12;;;;;;;;;;4436078;32;19941;-73
2023/01/17 08:11:24;;;;;;;12.95;3.53;;;;;;;;;;4452003;32;20249;-72
2023/01/17 08:13:56;;;;;;;12.60;2.62;;;;;;;;;;4436140;32;20025;-73
2023/01/17 08:16:21;;;;;;;18.90;3.35;;;;;;;;;;4448716;32;20104;-74
2023/01/17 08:18:46;;;;;;;;;;;;;;;;;;4451265;32;20347;-73
2023/01/17 08:21:13;;;;;;;12.15;2.42;;;;;;;;;;4436343;32;19947;-73
2023/01/17 08:23:38;;;;;;;6.82;3.08;;;;;;;;;;4451815;32;20196;-73
2023/01/17 08:26:03;;;;;;;;;;;;;;;;;;4432333;32;20393;-73
2023/01/17 08:28:28;;;;;;;6.72;2.00;;;;;;;;;;4444197;32;20004;-73
2023/01/17 08:30:53;;;;;;;;;;;;;;;;;;4452891;32;20155;-72
2023/01/17 08:33:18;;;;;;;7.72;2.78;;;;;;;;;;4437239;32;20283;-73
2023/01/17 08:35:44;;;;;;;;;;;;;;;;;;4439144;32;20151;-72
2023/01/17 08:38:09;;;;;;;12.93;3.55;;;;;;;;;;4458154;32;19932;-74
2023/01/17 08:40:34;;;;;;;10.80;3.30;;;;;;;;;;4458090;32;20056;-73
2023/01/17 08:42:59;;;;;;;;;;;;;;;;;;4454462;32;20026;-72
2023/01/17 08:45:27;;;;;;;7.22;3.17;;;;;;;;;;4454294;32;20280;-73
2023/01/17 08:47:52;;;;;;;17.05;3.53;;;;;;;;;;4453347;32;20141;-72
2023/01/17 08:50:20;;;;;;;;;;;;;;;;;;4453419;32;20042;-73
2023/01/17 08:52:49;;;;;;;7.68;2.30;;;;;;;;;;4439336;32;20317;-73
2023/01/17 08:55:15;;;;;;;9.98;2.42;;;;;;;;;;4440826;32;20111;-74
2023/01/17 08:57:40;;;;;;;;;;;;;;;;;;4454190;32;20074;-73
2023/01/17 09:00:06;;;;;;;6.93;2.85;;;;;;;;;;4439103;32;19932;-73
2023/01/17 09:02:31;;;;;;;;;;;;;;;;;;4453919;32;20116;-73
2023/01/17 09:04:56;;;;;;;7.32;2.37;;;;;;;;;;4453610;32;19972;-73
2023/01/17 09:07:23;;;;;;;;;;;;;;;;;;4453310;32;20116;-72
2023/01/17 09:09:48;;;;;;;11.73;3.30;;;;;;;;;;4448452;32;20306;-73
2023/01/17 09:12:13;;;;;;;;;;;;;;;;;;4423949;32;20083;-74
2023/01/17 09:14:38;;;;;;;7.56;2.80;;;;;;;;;;4437463;32;19971;-74
2023/01/17 09:17:05;;;;;;;;;;;;;;;;;;4438855;32;20102;-73
2023/01/17 09:19:30;;;;;;;8.48;2.30;;;;;;;;;;4437593;32;19937;-73
2023/01/17 09:21:56;;;;;;;;;;;;;;;;;;4438248;32;20363;-73
2023/01/17 09:24:21;;;;;;;11.05;2.42;;;;;;;;;;4437319;32;20227;-73
2023/01/17 09:26:46;;;;;;;7.07;2.60;;;;;;;;;;4423130;32;20026;-74
2023/01/17 09:29:12;;;;;;;;;;;;;;;;;;4438389;32;20029;-73
2023/01/17 09:31:38;;;;;;;7.45;2.12;;;;;;;;;;4452277;32;19950;-73
2023/01/17 09:34:03;;;;;;;;;;;;;;;;;;4453171;32;20029;-72
2023/01/17 09:36:30;;;;;;;8.68;2.30;;;;;;;;;;4448374;32;19936;-73
2023/01/17 09:38:59;;;;;;;6.18;2.55;;;;;;;;;;4437270;32;20189;-73
2023/01/17 09:41:28;;;;;;;6.62;2.40;;;;;;;;;;4437940;32;20080;-72
2023/01/17 09:44:01;;;;;;;3.92;2.05;;;;;;;;;;4423341;32;20387;-73
2023/01/17 09:46:32;;;;;;;6.47;2.53;;;;;;;;;;4436724;32;20048;-72
2023/01/17 09:49:26;;;;;;;6.30;2.28;;;;;;;;;;4435293;32;20030;-74
2023/01/17 09:51:52;;;;;;;8.00;2.05;;;;;;;;;;4419455;32;20025;-73
2023/01/17 09:54:17;;;;;;;;;;;;;;;;;;4437689;32;20048;-72
2023/01/17 09:56:47;;;;;;;2.97;1.80;;;;;;;;;;4435409;32;20331;-73
2023/01/17 09:59:30;;;;;;;6.18;2.20;;;;;;;;;;4438707;32;20458;-73
2023/01/17 10:02:19;;;;;;;8.63;2.40;;;;;;;;;;4451753;32;20021;-73
2023/01/17 10:05:05;;;;;;;5.20;2.05;;;;;;;;;;4443998;32;20038;-74
2023/01/17 10:07:39;;;;;;;6.00;2.20;;;;;;;;;;4457301;32;20029;-72
2023/01/17 10:10:14;;;;;;;5.93;1.98;;;;;;;;;;4453407;32;20079;-73
2023/01/17 10:12:47;;;;;;;7.93;1.95;;;;;;;;;;4445698;32;20038;-74
2023/01/17 10:15:18;;;;;;;4.00;2.08;;;;;;;;;;4451058;32;20047;-74
2023/01/17 10:17:53;;;;;;;9.95;2.20;;;;;;;;;;4453174;32;20025;-73
2023/01/17 10:20:32;;;;;;;6.32;2.00;;;;;;;;;;4436627;32;20029;-73
2023/01/17 10:23:04;;;;;;;6.32;3.05;;;;;;;;;;4437510;32;20074;-72
2023/01/17 10:25:41;;;;;;;9.52;3.35;;;;;;;;;;4437858;32;20025;-73
2023/01/17 10:28:07;;;;;;;4.47;2.25;;;;;;;;;;4453277;32;20146;-73
2023/01/17 10:30:32;;;;;;;;;;;;;;;;;;4452169;32;20026;-74
2023/01/17 10:32:58;;;;;;;10.40;3.08;;;;;;;;;;4438668;32;19940;-74
2023/01/17 10:35:29;;;;;;;5.47;2.72;;;;;;;;;;4438565;32;20089;-74
2023/01/17 10:37:55;;;;;;;9.70;2.75;;;;;;;;;;4437759;32;20064;-73
2023/01/17 10:40:25;;;;;;;6.45;2.42;;;;;;;;;;4452857;32;20343;-74
2023/01/17 10:42:59;;;;;;;3.70;2.17;;;;;;;;;;4451630;32;20025;-73
2023/01/17 10:45:27;;;;;;;12.20;4.40;;;;;;;;;;4447639;32;20152;-73
2023/01/17 10:48:13;;;;;;;10.68;3.17;;;;;;;;;;4438262;32;20051;-74
2023/01/17 10:50:53;;;;;;;9.90;3.97;;;;;;;;;;4421047;32;20030;-73
2023/01/17 10:53:34;;;;;;;14.43;4.55;;;;;;;;;;4436299;32;20064;-72
2023/01/17 10:56:00;;;;;;;7.95;2.83;;;;;;;;;;4435972;32;20045;-73
2023/01/17 10:58:25;;;;;;;;;;;;;;;;;;4436192;32;20053;-73
2023/01/17 11:00:56;;;;;;;11.05;3.00;;;;;;;;;;4436868;32;19937;-72
2023/01/17 11:03:22;;;;;;;7.45;2.75;;;;;;;;;;4445458;32;20457;-73
2023/01/17 11:06:07;;;;;;;7.60;2.00;;;;;;;;;;4452478;32;20029;-73
2023/01/17 11:08:49;;;;;;;8.18;3.00;;;;;;;;;;4452392;32;20037;-74
2023/01/17 11:11:15;;;;;;;10.05;3.50;;;;;;;;;;4452540;32;20414;-73
2023/01/17 11:13:40;;;;;;;;;;;;;;;;;;4453203;32;20096;-73
2023/01/17 11:16:07;;;;;;;6.42;2.18;;;;;;;;;;4452602;32;19936;-73
2023/01/17 11:18:34;;;;;;;10.63;2.28;;;;;;;;;;4451472;32;20052;-73
2023/01/17 11:21:10;;;;;;;11.43;4.28;;;;;;;;;;4450714;32;20040;-73
2023/01/17 11:23:35;;;;;;;6.25;2.67;;;;;;;;;;4435948;32;20057;-74
2023/01/17 11:26:03;;;;;;;;;;;;;;;;;;4436609;32;20084;-74
2023/01/17 11:28:30;;;;;;;7.20;3.00;;;;;;;;;;4435370;32;20295;-75
2023/01/17 11:30:56;;;;;;;11.27;2.95;;;;;;;;;;4436234;32;20130;-73
2023/01/17 11:33:46;;;;;;;8.57;2.28;;;;;;;;;;4440257;32;20064;-74
2023/01/17 11:36:17;;;;;;;3.78;1.85;;;;;;;;;;4436079;32;20037;-73
2023/01/17 11:38:55;;;;;;;7.20;2.50;;;;;;;;;;4420610;32;20029;-74
2023/01/17 11:41:21;;;;;;;9.52;3.37;;;;;;;;;;4432359;32;20370;-74
2023/01/17 11:43:46;;;;;;;;;;;;;;;;;;4451670;32;20089;-73
2023/01/17 11:46:19;;;;;;;9.14;2.32;;;;;;;;;;4451944;32;19980;-73
2023/01/17 11:48:58;;;;;;;6.55;2.12;;;;;;;;;;4452976;32;20068;-73
2023/01/17 11:51:24;;;;;;;3.90;2.12;;;;;;;;;;4449662;32;20147;-73
2023/01/17 11:53:49;;;;;;;;;;;;;;;;;;4451408;32;20026;-74
2023/01/17 11:56:19;;;;;;;4.80;2.20;;;;;;;;;;4452924;32;19979;-73
2023/01/17 11:58:46;;;;;;;6.05;2.78;;;;;;;;;;4437034;32;20175;-73
2023/01/17 12:01:19;;;;;;;3.45;1.90;;;;;;;;;;4450690;32;20403;-73
2023/01/17 12:04:07;;;;;;;5.25;1.80;;;;;;;;;;4437430;32;20064;-74
2023/01/17 12:07:04;;;;;;;4.70;2.10;;;;;;;;;;4451286;32;20051;-73
2023/01/17 12:09:49;;;;;;;4.85;1.87;;;;;;;;;;4409019;32;20029;-74
2023/01/17 12:15:10;;;;;;;8.68;2.53;;;;;;;;;;4455397;32;20053;-73
2023/01/17 12:17:48;;;;;;;5.68;1.62;;;;;;;;;;4439805;32;20033;-72
2023/01/17 12:20:29;;;;;;;2.72;1.58;;;;;;;;;;4439489;32;20082;-73
2023/01/17 12:23:07;;;;;;;1.95;1.40;;;;;;;;;;4454672;32;20399;-73
2023/01/17 12:25:32;;;;;;;4.72;1.37;;;;;;;;;;4440120;32;20078;-74
2023/01/17 12:27:58;;;;;;;;;;;;;;;;;;4453951;32;20026;-72
2023/01/17 12:30:36;;;;;;;2.97;0.93;;;;;;;;;;4439897;32;19929;-74
2023/01/17 12:33:12;;;;;;;2.75;1.40;;;;;;;;;;4453828;32;20074;-73
2023/01/17 12:35:40;;;;;;;7.72;1.55;;;;;;;;;;4453853;32;20043;-74
2023/01/17 12:38:09;;;;;;;6.62;1.17;;;;;;;;;;4453702;32;20091;-74
2023/01/17 12:40:38;;;;;;;5.12;1.10;;;;;;;;;;4453149;32;20391;-74
2023/01/17 12:43:12;;;;;;;2.47;1.17;;;;;;;;;;4438694;32;20048;-74
2023/01/17 12:45:40;;;;;;;3.78;1.30;;;;;;;;;;4454180;32;20031;-73
2023/01/17 12:48:09;;;;;;;4.50;1.52;;;;;;;;;;4439643;32;20132;-73
2023/01/17 12:50:40;;;;;;;5.18;1.10;;;;;;;;;;4440390;32;20095;-73
2023/01/17 12:53:05;;;;;;;4.40;1.35;;;;;;;;;;4440334;32;20060;-75
2023/01/17 12:55:30;;;;;;;;;;;;;;;;;;4440379;32;20044;-73
2023/01/17 12:57:57;;;;;;;1.75;1.20;;;;;;;;;;4454124;32;19992;-74
2023/01/17 13:00:25;;;;;;;2.15;1.10;;;;;;;;;;4452982;32;20024;-72
2023/01/17 13:02:53;;;;;;;2.47;1.20;;;;;;;;;;4438462;32;20473;-73
2023/01/17 13:05:24;;;;;;;4.37;1.40;;;;;;;;;;4453359;32;20026;-73
2023/01/17 13:08:08;;;;;;;2.28;1.67;;;;;;;;;;4453290;32;20018;-77
2023/01/17 13:10:38;;;;;;;8.27;1.35;;;;;;;;;;4452794;32;20111;-74
2023/01/17 13:13:12;;;;;;;4.18;1.33;;;;;;;;;;4453314;32;20034;-73
2023/01/17 13:15:38;;;;;;;2.60;1.12;;;;;;;;;;4453832;32;20017;-73
2023/01/17 13:18:21;;;;;;;3.25;1.20;;;;;;;;;;4439657;32;20029;-74
2023/01/17 13:21:06;;;;;;;5.78;1.55;;;;;;;;;;4440234;32;20353;-73
2023/01/17 13:23:49;;;;;;;4.72;1.30;;;;;;;;;;4453422;32;20025;-72
2023/01/17 13:26:19;;;;;;;6.05;1.40;;;;;;;;;;4441522;32;20089;-73
2023/01/17 13:28:56;;;;;;;4.18;1.27;;;;;;;;;;4455889;32;20053;-73
2023/01/17 13:31:40;;;;;;;2.53;1.20;;;;;;;;;;4440323;32;20107;-74
2023/01/17 13:34:35;;;;;;;4.82;1.48;;;;;;;;;;4441714;32;20030;-74
2023/01/17 13:37:14;;;;;;;6.18;2.12;;;;;;;;;;4436973;32;20025;-72
2023/01/17 13:39:57;;;;;;;2.47;1.20;;;;;;;;;;4454340;32;20446;-74
2023/01/17 13:42:45;;;;;;;8.27;2.25;;;;;;;;;;4453566;32;20017;-73
2023/01/17 13:45:19;;;;;;;7.15;2.65;;;;;;;;;;4454488;32;20022;-73
2023/01/17 13:47:45;;;;;;;1.20;0.88;;;;;;;;;;4453454;32;20017;-73
2023/01/17 13:50:10;;;;;;;;;;;;;;;;;;4438938;32;20041;-75
2023/01/17 13:52:37;;;;;;;4.07;1.40;;;;;;;;;;4438929;32;19962;-74
2023/01/17 13:55:05;;;;;;;7.20;1.45;;;;;;;;;;4453413;32;20386;-75
2023/01/17 13:57:34;;;;;;;2.62;1.10;;;;;;;;;;4438874;32;20094;-74
2023/01/17 14:00:20;;;;;;;3.05;1.23;;;;;;;;;;4452949;32;20026;-74
2023/01/17 14:02:50;;;;;;;5.07;1.00;;;;;;;;;;4440089;32;20062;-74
2023/01/17 14:05:21;;;;;;;9.63;1.67;;;;;;;;;;4455716;32;20061;-73
2023/01/17 14:07:47;;;;;;;3.15;1.40;;;;;;;;;;4453498;32;20063;-74
2023/01/17 14:10:12;;;;;;;;;;;;;;;;;;4452691;32;20084;-73
2023/01/17 14:12:37;;;;;;;3.67;1.42;;;;;;;;;;4452858;32;19932;-74
2023/01/17 14:15:04;;;;;;;;;;;;;;;;;;4449156;32;20117;-75
2023/01/17 14:17:45;;;;;;;3.30;1.60;;;;;;;;;;4438615;32;19952;-74
2023/01/17 14:20:11;;;;;;;4.30;1.40;;;;;;;;;;4453364;32;20434;-75
2023/01/17 14:22:38;;;;;;;1.92;1.02;;;;;;;;;;4438568;32;20037;-75
2023/01/17 14:25:18;;;;;;;5.57;1.40;;;;;;;;;;4438481;32;20068;-75
2023/01/17 14:27:46;;;;;;;4.30;1.20;;;;;;;;;;4429910;32;20026;-77
2023/01/17 14:30:23;;;;;;;4.93;2.10;;;;;;;;;;4437382;32;20112;-75
2023/01/17 14:32:57;;;;;;;2.65;1.25;;;;;;;;;;4444221;32;20041;-75
2023/01/17 14:35:23;;;;;;;4.05;1.58;;;;;;;;;;4439833;32;20423;-75
2023/01/17 14:37:49;;;;;;;;;;;;;;;;;;4452965;32;20079;-75
2023/01/17 14:40:16;;;;;;;3.12;1.30;;;;;;;;;;4447356;32;19941;-75
2023/01/17 14:42:41;;;;;;;2.42;1.65;;;;;;;;;;4439264;32;20029;-75
2023/01/17 14:45:06;;;;;;;;;;;;;;;;;;4439138;32;20044;-75
2023/01/17 14:47:33;;;;;;;4.78;1.58;;;;;;;;;;4424915;32;19944;-75
2023/01/17 14:50:20;;;;;;;7.53;1.83;;;;;;;;;;4438155;32;20181;-75
2023/01/17 14:52:45;;;;;;;3.58;1.25;;;;;;;;;;4430776;32;20107;-75
2023/01/17 14:55:14;;;;;;;;;;;;;;;;;;4428034;32;20022;-75
2023/01/17 14:57:39;;;;;;;2.25;1.50;;;;;;;;;;4439276;32;19943;-74
2023/01/17 15:00:04;;;;;;;;;;;;;;;;;;4446721;32;20060;-75
2023/01/17 15:02:30;;;;;;;5.25;1.92;;;;;;;;;;4430412;32;19948;-74
2023/01/17 15:04:55;;;;;;;;;;;;;;;;;;4455422;32;20061;-75
2023/01/17 15:07:21;;;;;;;12.90;3.60;;;;;;;;;;4451044;32;19944;-75
2023/01/17 15:09:46;;;;;;;10.32;4.20;;;;;;;;;;4424904;32;20018;-74
2023/01/17 15:12:15;;;;;;;;;;;;;;;;;;4425239;32;20030;-74
2023/01/17 15:14:44;;;;;;;2.72;1.98;;;;;;;;;;4438627;32;20291;-75
2023/01/17 15:17:15;;;;;;;6.78;2.08;;;;;;;;;;4450441;32;20107;-74
2023/01/17 15:19:42;;;;;;;6.30;1.92;;;;;;;;;;4451874;32;20385;-75
2023/01/17 15:22:08;;;;;;;16.02;2.47;;;;;;;;;;4449991;32;20025;-75
2023/01/17 15:24:36;;;;;;;;;;;;;;;;;;4451121;32;20376;-74
2023/01/17 15:27:04;;;;;;;9.90;1.62;;;;;;;;;;4438709;32;19971;-74
2023/01/17 15:29:34;;;;;;;8.20;1.50;;;;;;;;;;4435845;32;20057;-75
2023/01/17 15:32:01;;;;;;;5.35;1.65;;;;;;;;;;4421668;32;20021;-73
2023/01/17 15:34:28;;;;;;;3.72;1.40;;;;;;;;;;4438987;32;20030;-74
2023/01/17 15:36:56;;;;;;;5.12;1.80;;;;;;;;;;4431059;32;20058;-76
2023/01/17 15:39:32;;;;;;;6.97;2.03;;;;;;;;;;4421742;32;20030;-74
2023/01/17 15:41:59;;;;;;;3.42;2.00;;;;;;;;;;4421552;32;20029;-75
2023/01/17 15:44:35;;;;;;;6.53;1.83;;;;;;;;;;4436000;32;20029;-75
2023/01/17 15:47:01;;;;;;;3.70;1.58;;;;;;;;;;4423793;32;20013;-75
2023/01/17 15:49:28;;;;;;;;;;;;;;;;;;4426346;32;20091;-75
2023/01/17 15:51:53;;;;;;;8.88;1.95;;;;;;;;;;4439608;32;19936;-75
2023/01/17 15:54:18;;;;;;;;;;;;;;;;;;4452736;32;20435;-74
2023/01/17 15:56:44;;;;;;;5.10;1.55;;;;;;;;;;4454535;32;19940;-74
2023/01/17 15:59:09;;;;;;;;;;;;;;;;;;4440957;32;20070;-75
2023/01/17 16:01:34;;;;;;;6.78;1.98;;;;;;;;;;4454254;32;19932;-75
2023/01/17 16:03:59;;;;;;;6.22;2.50;;;;;;;;;;4453618;32;20029;-75
2023/01/17 16:06:25;;;;;;;;;;;;;;;;;;4455343;32;20091;-74
2023/01/17 16:08:50;;;;;;;9.20;2.03;;;;;;;;;;4453435;32;19955;-76
2023/01/17 16:11:17;;;;;;;;;;;;;;;;;;4439930;32;20128;-75
2023/01/17 16:13:46;;;;;;;5.82;2.40;;;;;;;;;;4440398;32;19984;-75
2023/01/17 16:16:12;;;;;;;6.75;3.78;;;;;;;;;;4439717;32;20088;-75
2023/01/17 16:18:39;;;;;;;8.05;2.78;;;;;;;;;;4440440;32;20064;-75
2023/01/17 16:21:17;;;;;;;9.13;3.25;;;;;;;;;;4452715;32;20361;-74
2023/01/17 16:23:42;;;;;;;8.68;3.28;;;;;;;;;;4443974;32;20415;-76
2023/01/17 16:26:09;;;;;;;;;;;;;;;;;;4439752;32;20052;-74
2023/01/17 16:28:35;;;;;;;10.82;6.05;;;;;;;;;;4438590;32;19940;-75
2023/01/17 16:31:00;;;;;;;;;;;;;;;;;;4426023;32;20057;-74
2023/01/17 16:33:25;;;;;;;11.70;3.53;;;;;;;;;;4425336;32;19937;-74
2023/01/17 16:35:51;;;;;;;;;;;;;;;;;;4438445;32;20091;-74
2023/01/17 16:38:18;;;;;;;12.02;4.75;;;;;;;;;;4438918;32;19940;-75
2023/01/17 16:40:44;;;;;;;10.32;4.65;;;;;;;;;;4424678;32;20388;-76
2023/01/17 16:43:10;;;;;;;;;;;;;;;;;;4438643;32;20113;-74
2023/01/17 16:45:40;;;;;;;10.02;4.37;;;;;;;;;;4424716;32;19974;-76